Time;durP1;ratioP1;P1;durP2;ratioP2;P2;SDS_P1;SDS_P2;PMS_P1;PMS_P2;Temp;Humidity;BMP_temperature;BMP_pressure;BME280_temperature;BME280_humidity;BME280_pressure;Samples;Min_cycle;Max_cycle;Signal;HPM_P1;HPM_P2
2022/06/13 00:00:44;;;;;;;14.65;7.38;;;;;;;;;;5036030;28;20197;-73
2022/06/13 00:03:09;;;;;;;11.40;6.55;;;;;;;;;;5031509;28;20190;-75
2022/06/13 00:05:35;;;;;;;14.13;7.22;;;;;;;;;;5039518;28;20649;-74
2022/06/13 00:08:00;;;;;;;13.73;6.95;;;;;;;;;;5040557;28;20333;-72
2022/06/13 00:10:26;;;;;;;17.30;7.43;;;;;;;;;;5035435;28;20706;-73
2022/06/13 00:12:51;;;;;;;13.52;7.03;;;;;;;;;;5052974;28;20181;-73
2022/06/13 00:15:16;;;;;;;13.75;7.05;;;;;;;;;;5035942;28;20202;-73
2022/06/13 00:17:41;;;;;;;13.23;6.70;;;;;;;;;;5031505;28;20175;-73
2022/06/13 00:20:07;;;;;;;13.68;7.43;;;;;;;;;;5033482;28;20182;-73
2022/06/13 00:22:32;;;;;;;17.52;7.90;;;;;;;;;;5046490;28;20200;-74
2022/06/13 00:24:58;;;;;;;12.65;7.32;;;;;;;;;;5043299;28;20182;-73
2022/06/13 00:27:23;;;;;;;12.57;7.15;;;;;;;;;;5046868;28;20184;-73
2022/06/13 00:29:49;;;;;;;20.25;7.80;;;;;;;;;;5048169;28;20579;-74
2022/06/13 00:32:15;;;;;;;16.25;7.55;;;;;;;;;;5039120;28;20171;-73
2022/06/13 00:34:40;;;;;;;11.38;6.80;;;;;;;;;;5029062;28;20269;-73
2022/06/13 00:37:06;;;;;;;13.35;7.65;;;;;;;;;;5044197;28;20617;-73
2022/06/13 00:39:31;;;;;;;11.85;7.10;;;;;;;;;;5041305;28;20180;-73
2022/06/13 00:41:56;;;;;;;13.70;7.55;;;;;;;;;;5038620;28;20653;-73
2022/06/13 00:44:26;;;;;;;14.57;6.97;;;;;;;;;;5040796;28;20280;-73
2022/06/13 00:46:51;;;;;;;12.80;6.25;;;;;;;;;;5032171;28;20241;-73
2022/06/13 00:49:22;;;;;;;11.63;7.03;;;;;;;;;;5044202;28;20194;-74
2022/06/13 00:51:49;;;;;;;12.95;7.20;;;;;;;;;;5040107;28;20212;-74
2022/06/13 00:54:15;;;;;;;10.32;6.50;;;;;;;;;;5035807;28;20267;-75
2022/06/13 00:56:41;;;;;;;11.98;7.50;;;;;;;;;;5046338;28;20225;-72
2022/06/13 00:59:12;;;;;;;21.67;8.55;;;;;;;;;;5040706;28;20608;-75
2022/06/13 01:01:37;;;;;;;14.80;7.07;;;;;;;;;;5051127;28;20185;-72
2022/06/13 01:04:03;;;;;;;14.25;6.68;;;;;;;;;;5050243;28;20219;-72
2022/06/13 01:06:30;;;;;;;14.30;7.43;;;;;;;;;;5050097;28;20197;-73
2022/06/13 01:08:55;;;;;;;9.57;5.90;;;;;;;;;;5039016;28;20193;-73
2022/06/13 01:11:22;;;;;;;14.02;7.30;;;;;;;;;;5050597;28;20780;-74
2022/06/13 01:14:06;;;;;;;13.13;7.05;;;;;;;;;;5040369;28;20666;-73
2022/06/13 01:16:51;;;;;;;9.93;6.20;;;;;;;;;;5039659;28;20233;-73
2022/06/13 01:19:25;;;;;;;12.82;7.65;;;;;;;;;;5033961;28;20182;-73
2022/06/13 01:21:50;;;;;;;11.15;6.65;;;;;;;;;;5046669;28;20681;-73
2022/06/13 01:24:22;;;;;;;11.73;7.05;;;;;;;;;;5036237;28;20189;-73
2022/06/13 01:27:06;;;;;;;10.80;6.63;;;;;;;;;;5038015;28;20198;-73
2022/06/13 01:29:51;;;;;;;13.43;6.50;;;;;;;;;;5035822;28;20265;-73
2022/06/13 01:32:17;;;;;;;14.10;7.47;;;;;;;;;;5039859;28;20239;-74
2022/06/13 01:34:45;;;;;;;10.30;6.80;;;;;;;;;;5044636;28;20182;-74
2022/06/13 01:37:13;;;;;;;15.02;7.15;;;;;;;;;;5047164;28;20178;-74
2022/06/13 01:39:53;;;;;;;12.05;6.28;;;;;;;;;;5040901;28;20670;-73
2022/06/13 01:42:37;;;;;;;12.32;7.32;;;;;;;;;;5048797;28;20255;-73
2022/06/13 01:45:15;;;;;;;14.85;9.00;;;;;;;;;;5044262;28;20170;-73
2022/06/13 01:48:01;;;;;;;11.48;6.68;;;;;;;;;;5047515;28;20179;-75
2022/06/13 01:50:32;;;;;;;11.77;6.95;;;;;;;;;;5040777;28;20197;-72
2022/06/13 01:53:02;;;;;;;14.77;6.57;;;;;;;;;;5037404;28;20178;-75
2022/06/13 01:55:45;;;;;;;13.38;6.03;;;;;;;;;;5040776;28;20198;-74
2022/06/13 01:58:14;;;;;;;14.13;6.65;;;;;;;;;;5048420;28;20176;-73
2022/06/13 02:00:43;;;;;;;11.40;6.63;;;;;;;;;;5045625;28;20647;-73
2022/06/13 02:03:11;;;;;;;10.23;6.32;;;;;;;;;;5048014;28;20192;-72
2022/06/13 02:05:55;;;;;;;10.85;6.32;;;;;;;;;;5037728;28;20206;-73
2022/06/13 02:08:23;;;;;;;10.40;6.32;;;;;;;;;;5046648;28;20173;-73
2022/06/13 02:10:51;;;;;;;20.35;8.98;;;;;;;;;;5034838;28;20202;-73
2022/06/13 02:13:20;;;;;;;11.88;7.05;;;;;;;;;;5039215;28;20193;-73
2022/06/13 02:15:52;;;;;;;11.15;6.43;;;;;;;;;;5051358;28;20210;-74
2022/06/13 02:18:32;;;;;;;12.93;6.78;;;;;;;;;;5046413;28;20178;-72
2022/06/13 02:21:02;;;;;;;13.85;6.47;;;;;;;;;;5046896;28;20217;-73
2022/06/13 02:23:29;;;;;;;14.20;6.80;;;;;;;;;;5048138;28;20185;-73
2022/06/13 02:25:58;;;;;;;14.65;6.80;;;;;;;;;;5045462;28;20206;-73
2022/06/13 02:28:44;;;;;;;14.57;7.43;;;;;;;;;;5033278;28;20185;-73
2022/06/13 02:31:12;;;;;;;13.43;7.43;;;;;;;;;;5043808;28;20252;-73
2022/06/13 02:33:40;;;;;;;17.35;7.65;;;;;;;;;;5046157;28;20226;-73
2022/06/13 02:36:10;;;;;;;15.18;7.47;;;;;;;;;;5040939;28;20194;-73
2022/06/13 02:38:40;;;;;;;9.02;6.80;;;;;;;;;;5044975;28;20181;-73
2022/06/13 02:41:07;;;;;;;16.40;8.15;;;;;;;;;;5042108;28;20182;-73
2022/06/13 02:43:40;;;;;;;16.33;7.20;;;;;;;;;;5040254;28;20190;-73
2022/06/13 02:46:11;;;;;;;17.40;8.43;;;;;;;;;;5031738;28;20205;-73
2022/06/13 02:48:39;;;;;;;16.98;8.40;;;;;;;;;;5043166;28;20689;-72
2022/06/13 02:51:05;;;;;;;16.85;7.35;;;;;;;;;;5048681;28;20201;-72
2022/06/13 02:53:35;;;;;;;16.10;8.10;;;;;;;;;;5039891;28;20174;-72
2022/06/13 02:56:10;;;;;;;9.93;7.18;;;;;;;;;;5047897;28;20869;-72
2022/06/13 02:58:35;;;;;;;11.40;7.88;;;;;;;;;;5033805;28;20207;-74
2022/06/13 03:01:16;;;;;;;18.55;8.93;;;;;;;;;;5039770;28;20173;-72
2022/06/13 03:03:42;;;;;;;15.68;7.47;;;;;;;;;;5037367;28;20191;-72
2022/06/13 03:06:09;;;;;;;12.23;8.30;;;;;;;;;;5044910;28;20201;-73
2022/06/13 03:08:49;;;;;;;15.25;8.77;;;;;;;;;;5038054;28;20631;-74
2022/06/13 03:11:23;;;;;;;15.98;8.63;;;;;;;;;;5040298;28;20202;-73
2022/06/13 03:13:50;;;;;;;14.57;8.07;;;;;;;;;;5043422;28;20174;-73
2022/06/13 03:16:18;;;;;;;14.95;8.40;;;;;;;;;;5047424;28;20185;-73
2022/06/13 03:18:53;;;;;;;18.02;8.52;;;;;;;;;;5047203;28;20551;-73
2022/06/13 03:21:33;;;;;;;15.73;8.02;;;;;;;;;;5037552;28;20272;-73
2022/06/13 03:24:02;;;;;;;18.10;8.50;;;;;;;;;;5030420;28;20180;-73
2022/06/13 03:26:33;;;;;;;14.60;8.40;;;;;;;;;;5037907;28;20582;-73
2022/06/13 03:29:02;;;;;;;12.90;7.95;;;;;;;;;;5043634;28;20681;-73
2022/06/13 03:31:35;;;;;;;14.75;8.25;;;;;;;;;;5047344;28;20209;-73
2022/06/13 03:34:05;;;;;;;17.90;8.25;;;;;;;;;;5035757;28;20454;-73
2022/06/13 03:36:46;;;;;;;19.83;9.15;;;;;;;;;;5042420;28;20194;-73
2022/06/13 03:39:11;;;;;;;16.20;8.88;;;;;;;;;;5045707;28;20204;-73
2022/06/13 03:41:38;;;;;;;12.48;8.02;;;;;;;;;;5041648;28;20182;-74
2022/06/13 03:44:12;;;;;;;18.67;8.43;;;;;;;;;;5047822;28;20186;-74
2022/06/13 03:46:47;;;;;;;16.65;8.75;;;;;;;;;;5040167;28;20204;-74
2022/06/13 03:49:24;;;;;;;16.23;9.02;;;;;;;;;;5037316;28;20594;-73
2022/06/13 03:51:52;;;;;;;15.77;7.82;;;;;;;;;;5037053;28;20587;-74
2022/06/13 03:54:29;;;;;;;13.38;7.68;;;;;;;;;;5034951;28;20758;-73
2022/06/13 03:56:54;;;;;;;16.85;7.68;;;;;;;;;;5046736;28;20805;-73
2022/06/13 03:59:25;;;;;;;16.70;7.60;;;;;;;;;;5049801;28;20185;-73
2022/06/13 04:02:11;;;;;;;17.83;8.70;;;;;;;;;;5048828;28;20441;-74
2022/06/13 04:04:47;;;;;;;16.65;7.20;;;;;;;;;;5045507;28;20240;-73
2022/06/13 04:07:13;;;;;;;13.73;7.20;;;;;;;;;;5046660;28;20173;-73
2022/06/13 04:09:40;;;;;;;11.68;6.97;;;;;;;;;;5038818;28;20694;-73
2022/06/13 04:12:23;;;;;;;13.23;6.90;;;;;;;;;;5035667;28;20292;-73
2022/06/13 04:15:05;;;;;;;16.23;6.68;;;;;;;;;;5037283;28;20173;-73
2022/06/13 04:17:39;;;;;;;13.45;6.50;;;;;;;;;;5039215;28;20739;-73
2022/06/13 04:20:10;;;;;;;17.10;7.78;;;;;;;;;;5041872;28;20181;-73
2022/06/13 04:22:50;;;;;;;15.10;6.30;;;;;;;;;;5041089;28;20170;-73
2022/06/13 04:25:21;;;;;;;13.02;5.88;;;;;;;;;;5036896;28;20206;-73
2022/06/13 04:27:50;;;;;;;14.23;6.63;;;;;;;;;;5037422;28;20638;-73
2022/06/13 04:30:18;;;;;;;16.52;5.97;;;;;;;;;;5051328;28;20210;-73
2022/06/13 04:32:48;;;;;;;16.38;6.35;;;;;;;;;;5035323;28;20190;-73
2022/06/13 04:35:14;;;;;;;17.90;6.00;;;;;;;;;;5043260;28;20193;-73
2022/06/13 04:37:40;;;;;;;17.35;6.82;;;;;;;;;;5048430;28;20655;-73
2022/06/13 04:40:08;;;;;;;16.10;6.68;;;;;;;;;;5047322;28;20206;-73
2022/06/13 04:42:35;;;;;;;11.85;5.13;;;;;;;;;;5044925;28;20197;-73
2022/06/13 04:45:06;;;;;;;10.55;5.03;;;;;;;;;;5042536;28;20178;-73
2022/06/13 04:47:31;;;;;;;13.05;5.03;;;;;;;;;;5048754;28;20194;-73
2022/06/13 04:49:58;;;;;;;13.25;4.72;;;;;;;;;;5043555;28;20709;-73
2022/06/13 04:52:25;;;;;;;12.05;5.03;;;;;;;;;;5044358;28;20646;-73
2022/06/13 04:54:52;;;;;;;10.82;4.43;;;;;;;;;;5037903;28;20182;-74
2022/06/13 04:57:18;;;;;;;16.17;5.03;;;;;;;;;;5052216;28;20190;-75
2022/06/13 04:59:44;;;;;;;11.18;4.03;;;;;;;;;;5031706;28;20186;-74
2022/06/13 05:02:32;;;;;;;7.00;3.97;;;;;;;;;;5041775;28;20256;-74
2022/06/13 05:04:57;;;;;;;14.07;4.93;;;;;;;;;;5040992;28;20175;-74
2022/06/13 05:07:23;;;;;;;8.73;3.65;;;;;;;;;;5046406;28;20189;-74
2022/06/13 05:10:08;;;;;;;9.40;3.28;;;;;;;;;;5044615;28;20185;-74
2022/06/13 05:12:42;;;;;;;8.23;4.05;;;;;;;;;;5045279;28;20189;-74
2022/06/13 05:15:07;;;;;;;9.73;3.30;;;;;;;;;;5040468;28;20224;-74
2022/06/13 05:17:35;;;;;;;7.93;2.67;;;;;;;;;;5047694;28;20181;-73
2022/06/13 05:20:07;;;;;;;8.40;3.00;;;;;;;;;;5036637;28;20175;-74
2022/06/13 05:22:38;;;;;;;5.78;2.60;;;;;;;;;;5047785;28;20593;-72
2022/06/13 05:25:26;;;;;;;5.03;2.15;;;;;;;;;;5041948;28;20235;-75
2022/06/13 05:27:53;;;;;;;6.05;2.38;;;;;;;;;;5042503;28;20197;-73
2022/06/13 05:30:19;;;;;;;4.70;1.80;;;;;;;;;;5039315;28;20213;-74
2022/06/13 05:32:45;;;;;;;8.50;1.90;;;;;;;;;;5036927;28;20553;-73
2022/06/13 05:35:19;;;;;;;5.47;1.98;;;;;;;;;;5032465;28;20223;-75
2022/06/13 05:37:44;;;;;;;5.13;2.35;;;;;;;;;;5031036;28;20558;-74
2022/06/13 05:40:20;;;;;;;2.60;1.40;;;;;;;;;;5034769;28;20185;-75
2022/06/13 05:42:46;;;;;;;7.57;2.10;;;;;;;;;;5038008;28;20185;-75
2022/06/13 05:45:12;;;;;;;4.53;2.15;;;;;;;;;;5032918;28;20202;-74
2022/06/13 05:47:37;;;;;;;4.78;2.15;;;;;;;;;;5043098;28;20191;-75
2022/06/13 05:50:02;;;;;;;5.90;1.50;;;;;;;;;;5037594;28;20212;-74
2022/06/13 05:52:28;;;;;;;6.53;2.03;;;;;;;;;;5033225;28;20177;-75
2022/06/13 05:54:53;;;;;;;5.53;1.98;;;;;;;;;;5031350;28;20185;-74
2022/06/13 05:57:18;;;;;;;5.05;1.73;;;;;;;;;;5035221;28;20182;-75
2022/06/13 05:59:43;;;;;;;7.88;1.90;;;;;;;;;;5036666;28;20214;-74
2022/06/13 06:02:09;;;;;;;4.93;1.85;;;;;;;;;;5037482;28;20659;-74
2022/06/13 06:04:34;;;;;;;4.72;1.60;;;;;;;;;;5029347;28;20177;-73
2022/06/13 06:06:59;;;;;;;3.83;1.67;;;;;;;;;;5034522;28;20198;-75
2022/06/13 06:09:25;;;;;;;5.15;1.73;;;;;;;;;;5031255;28;20435;-73
2022/06/13 06:11:50;;;;;;;4.40;2.10;;;;;;;;;;5028859;28;20207;-74
2022/06/13 06:14:15;;;;;;;8.68;2.10;;;;;;;;;;5034504;28;20869;-74
2022/06/13 06:16:40;;;;;;;8.63;1.98;;;;;;;;;;5035420;28;20197;-73
2022/06/13 06:19:05;;;;;;;7.13;2.22;;;;;;;;;;5035034;28;20205;-73
2022/06/13 06:21:30;;;;;;;5.80;2.22;;;;;;;;;;5038003;28;20273;-73
2022/06/13 06:23:56;;;;;;;6.37;1.70;;;;;;;;;;5039815;28;20543;-73
2022/06/13 06:26:22;;;;;;;7.30;1.73;;;;;;;;;;5034724;28;20450;-73
2022/06/13 06:28:47;;;;;;;6.15;2.10;;;;;;;;;;5027135;28;20926;-73
2022/06/13 06:31:13;;;;;;;5.13;2.08;;;;;;;;;;5033267;28;20211;-73
2022/06/13 06:33:38;;;;;;;6.68;1.90;;;;;;;;;;5028961;28;20170;-73
2022/06/13 06:36:03;;;;;;;5.82;2.15;;;;;;;;;;5032863;28;20206;-73
2022/06/13 06:38:29;;;;;;;5.90;2.08;;;;;;;;;;5034869;28;20188;-73
2022/06/13 06:40:54;;;;;;;6.32;2.00;;;;;;;;;;5036199;28;20276;-73
2022/06/13 06:43:20;;;;;;;5.20;2.15;;;;;;;;;;5026857;28;20182;-73
2022/06/13 06:45:45;;;;;;;6.22;1.95;;;;;;;;;;5037338;28;20232;-73
2022/06/13 06:48:21;;;;;;;4.20;1.35;;;;;;;;;;5030373;28;20184;-73
2022/06/13 06:50:49;;;;;;;5.30;1.88;;;;;;;;;;5035309;28;20266;-73
2022/06/13 06:53:14;;;;;;;2.90;1.20;;;;;;;;;;5035001;28;20177;-73
2022/06/13 07:01:08;;;;;;;2.90;0.70;;;;;;;;;;5028799;28;20201;-73
2022/06/13 07:03:33;;;;;;;3.90;1.38;;;;;;;;;;5015796;28;20588;-73
2022/06/13 07:05:59;;;;;;;5.95;2.13;;;;;;;;;;5016576;28;20210;-73
2022/06/13 07:08:24;;;;;;;5.60;1.35;;;;;;;;;;5018251;28;20206;-76
2022/06/13 07:10:49;;;;;;;4.03;1.15;;;;;;;;;;5019133;28;20249;-73
2022/06/13 07:13:15;;;;;;;3.33;1.00;;;;;;;;;;5022708;28;20180;-73
2022/06/13 07:15:40;;;;;;;6.80;1.25;;;;;;;;;;5026051;28;20728;-73
2022/06/13 07:18:06;;;;;;;8.18;1.45;;;;;;;;;;5018138;28;20182;-73
2022/06/13 07:20:32;;;;;;;6.00;1.35;;;;;;;;;;5021446;28;20600;-74
2022/06/13 07:22:57;;;;;;;4.13;1.10;;;;;;;;;;5027370;28;20170;-73
2022/06/13 07:25:24;;;;;;;4.43;1.27;;;;;;;;;;5023033;28;20197;-73
2022/06/13 07:27:49;;;;;;;7.07;1.42;;;;;;;;;;5019823;28;20193;-74
2022/06/13 07:30:16;;;;;;;5.80;1.50;;;;;;;;;;5019066;28;20206;-73
2022/06/13 07:32:43;;;;;;;6.30;1.40;;;;;;;;;;5020891;28;20683;-74
2022/06/13 07:35:08;;;;;;;5.35;1.30;;;;;;;;;;5021146;28;20279;-73
2022/06/13 07:40:18;;;;;;;13.07;1.92;;;;;;;;;;5020899;28;20240;-73
2022/06/13 07:42:46;;;;;;;4.38;1.15;;;;;;;;;;5019871;28;20198;-73
2022/06/13 07:45:12;;;;;;;3.88;1.02;;;;;;;;;;5025127;28;20230;-73
2022/06/13 07:47:37;;;;;;;3.38;0.77;;;;;;;;;;5019730;28;20305;-73
2022/06/13 07:50:03;;;;;;;3.85;1.00;;;;;;;;;;5019246;28;20712;-74
2022/06/13 07:52:28;;;;;;;3.03;0.93;;;;;;;;;;5023007;28;20173;-73
2022/06/13 07:54:53;;;;;;;5.07;1.08;;;;;;;;;;5020447;28;20256;-74
2022/06/13 07:57:19;;;;;;;5.60;1.00;;;;;;;;;;5019308;28;20201;-73
2022/06/13 07:59:44;;;;;;;3.25;1.15;;;;;;;;;;5022441;28;20178;-73
2022/06/13 08:02:15;;;;;;;3.33;0.90;;;;;;;;;;5021796;28;20198;-74
2022/06/13 08:04:40;;;;;;;3.53;1.25;;;;;;;;;;5024818;28;20186;-74
2022/06/13 08:07:06;;;;;;;4.95;1.10;;;;;;;;;;5023896;28;20201;-73
2022/06/13 08:09:31;;;;;;;4.68;1.35;;;;;;;;;;5026457;28;20187;-73
2022/06/13 08:11:56;;;;;;;3.45;0.80;;;;;;;;;;5051443;28;20589;-74
2022/06/13 08:14:21;;;;;;;4.28;1.33;;;;;;;;;;5048381;28;20181;-74
2022/06/13 08:16:47;;;;;;;6.83;1.27;;;;;;;;;;5046445;28;20201;-74
2022/06/13 08:19:12;;;;;;;2.03;1.08;;;;;;;;;;5042433;28;20441;-74
2022/06/13 08:21:38;;;;;;;5.25;1.30;;;;;;;;;;5037323;28;20166;-74
2022/06/13 08:24:04;;;;;;;3.55;1.33;;;;;;;;;;5042825;28;20182;-74
2022/06/13 08:26:29;;;;;;;5.07;1.15;;;;;;;;;;5033793;28;20433;-73
2022/06/13 08:28:54;;;;;;;5.70;1.00;;;;;;;;;;5024957;28;20211;-74
2022/06/13 08:31:21;;;;;;;3.45;1.00;;;;;;;;;;5024825;28;20548;-73
2022/06/13 08:33:47;;;;;;;4.97;0.98;;;;;;;;;;5025605;28;20184;-73
2022/06/13 08:36:12;;;;;;;3.45;1.17;;;;;;;;;;5026598;28;20190;-73
2022/06/13 08:38:38;;;;;;;3.00;0.95;;;;;;;;;;5025064;28;20182;-73
2022/06/13 08:41:13;;;;;;;3.05;1.20;;;;;;;;;;5031358;28;20196;-73
2022/06/13 08:43:57;;;;;;;3.33;1.33;;;;;;;;;;5025506;28;20170;-73
2022/06/13 08:46:36;;;;;;;3.40;1.20;;;;;;;;;;5026190;28;22048;-73
2022/06/13 08:49:06;;;;;;;4.15;1.02;;;;;;;;;;5025256;28;20332;-73
2022/06/13 08:51:36;;;;;;;4.97;1.35;;;;;;;;;;5024617;28;22294;-73
2022/06/13 08:54:02;;;;;;;3.78;0.80;;;;;;;;;;5027949;28;20185;-73
2022/06/13 08:56:29;;;;;;;3.28;1.00;;;;;;;;;;5019540;28;20711;-72
2022/06/13 08:58:56;;;;;;;3.67;1.13;;;;;;;;;;5022863;28;20183;-73
2022/06/13 09:01:27;;;;;;;4.72;0.80;;;;;;;;;;5026223;28;20191;-73
2022/06/13 09:03:55;;;;;;;5.82;0.98;;;;;;;;;;5024463;28;20529;-73
2022/06/13 09:06:20;;;;;;;5.20;0.98;;;;;;;;;;5025037;28;20761;-72
2022/06/13 09:08:51;;;;;;;2.33;0.80;;;;;;;;;;5021935;28;20213;-73
2022/06/13 09:11:21;;;;;;;4.07;1.00;;;;;;;;;;5026101;28;20481;-73
2022/06/13 09:13:57;;;;;;;2.22;0.60;;;;;;;;;;5022752;28;21902;-73
2022/06/13 09:16:32;;;;;;;4.50;0.95;;;;;;;;;;5025551;28;20197;-73
2022/06/13 09:18:58;;;;;;;2.78;1.00;;;;;;;;;;5026803;28;20192;-74
2022/06/13 09:21:31;;;;;;;3.33;0.70;;;;;;;;;;5024107;28;20510;-73
2022/06/13 09:24:08;;;;;;;1.60;0.70;;;;;;;;;;5021665;28;20351;-73
2022/06/13 09:26:37;;;;;;;3.28;1.05;;;;;;;;;;5022801;28;20224;-73
2022/06/13 09:29:22;;;;;;;4.03;1.08;;;;;;;;;;5025803;28;20682;-74
2022/06/13 09:31:49;;;;;;;2.35;0.70;;;;;;;;;;5025083;28;20201;-73
2022/06/13 09:34:18;;;;;;;7.25;1.10;;;;;;;;;;5022103;28;20174;-73
2022/06/13 09:36:47;;;;;;;4.43;1.00;;;;;;;;;;5023075;28;20745;-73
2022/06/13 09:39:12;;;;;;;3.55;1.30;;;;;;;;;;5023281;28;20177;-71
2022/06/13 09:41:44;;;;;;;7.82;1.15;;;;;;;;;;5028678;28;20533;-72
2022/06/13 09:44:28;;;;;;;5.03;1.25;;;;;;;;;;5023406;28;20190;-72
2022/06/13 09:47:09;;;;;;;5.43;1.05;;;;;;;;;;5026343;28;20799;-72
2022/06/13 09:49:42;;;;;;;3.90;1.20;;;;;;;;;;5022007;28;20173;-72
2022/06/13 09:52:08;;;;;;;4.57;1.27;;;;;;;;;;5027510;28;20210;-73
2022/06/13 09:54:41;;;;;;;5.37;1.17;;;;;;;;;;5022053;28;20177;-73
2022/06/13 09:57:06;;;;;;;3.47;0.95;;;;;;;;;;5024680;28;20432;-73
2022/06/13 09:59:34;;;;;;;2.80;0.97;;;;;;;;;;5023070;28;20741;-73
2022/06/13 10:02:20;;;;;;;2.92;1.00;;;;;;;;;;5020812;28;20443;-73
2022/06/13 10:05:03;;;;;;;3.00;1.17;;;;;;;;;;5022532;28;20190;-73
2022/06/13 10:07:28;;;;;;;2.97;0.88;;;;;;;;;;5023304;28;20779;-73
2022/06/13 10:10:01;;;;;;;2.20;0.80;;;;;;;;;;5019146;28;20186;-73
2022/06/13 10:12:32;;;;;;;3.42;1.40;;;;;;;;;;5024766;28;20672;-73
2022/06/13 10:15:06;;;;;;;4.47;1.10;;;;;;;;;;5025904;28;20183;-74
2022/06/13 10:17:52;;;;;;;6.05;1.15;;;;;;;;;;5016751;28;20554;-73
2022/06/13 10:20:20;;;;;;;6.10;1.20;;;;;;;;;;5018455;28;20193;-73
2022/06/13 10:22:52;;;;;;;4.10;1.00;;;;;;;;;;5022677;28;20182;-74
2022/06/13 10:25:36;;;;;;;3.47;0.90;;;;;;;;;;5023449;28;20297;-74
2022/06/13 10:28:20;;;;;;;3.25;1.17;;;;;;;;;;5029190;28;20204;-73
2022/06/13 10:30:51;;;;;;;4.35;0.90;;;;;;;;;;5022866;28;20201;-73
2022/06/13 10:33:36;;;;;;;1.50;0.63;;;;;;;;;;5019543;28;20185;-73
2022/06/13 10:36:10;;;;;;;3.42;1.10;;;;;;;;;;5023648;28;20872;-73
2022/06/13 10:38:41;;;;;;;4.38;1.15;;;;;;;;;;5023742;28;20182;-73
2022/06/13 10:41:07;;;;;;;4.18;1.88;;;;;;;;;;5020491;28;20210;-74
2022/06/13 10:43:32;;;;;;;2.85;1.10;;;;;;;;;;5017898;28;20320;-73
2022/06/13 10:45:57;;;;;;;2.42;0.60;;;;;;;;;;5025507;28;20615;-74
2022/06/13 10:48:30;;;;;;;2.63;0.70;;;;;;;;;;5023577;28;20177;-74
2022/06/13 10:50:56;;;;;;;1.27;0.65;;;;;;;;;;5024695;28;20213;-71
2022/06/13 10:53:24;;;;;;;2.92;0.80;;;;;;;;;;5020750;28;20201;-75
2022/06/13 10:55:51;;;;;;;5.78;0.80;;;;;;;;;;5019804;28;20208;-73
2022/06/13 10:58:20;;;;;;;5.57;1.05;;;;;;;;;;5021750;28;20190;-74
2022/06/13 11:01:14;;;;;;;4.07;0.80;;;;;;;;;;5023943;28;20198;-73
2022/06/13 11:03:41;;;;;;;1.90;0.70;;;;;;;;;;5017813;28;20289;-73
2022/06/13 11:06:13;;;;;;;3.58;0.80;;;;;;;;;;5022616;28;20202;-74
2022/06/13 11:08:38;;;;;;;3.53;0.80;;;;;;;;;;5020621;28;20556;-74
2022/06/13 11:11:13;;;;;;;1.98;0.80;;;;;;;;;;5028403;28;20205;-73
2022/06/13 11:13:39;;;;;;;3.80;0.88;;;;;;;;;;5024679;28;20179;-74
2022/06/13 11:24:40;;;;;;;4.05;1.00;;;;;;;;;;5016599;28;20243;-73
2022/06/13 11:30:09;;;;;;;4.43;0.88;;;;;;;;;;5021338;28;20185;-74
2022/06/13 11:32:34;;;;;;;2.63;0.70;;;;;;;;;;5028618;28;20189;-73
2022/06/13 11:34:59;;;;;;;3.10;0.70;;;;;;;;;;5021016;28;20188;-73
2022/06/13 11:37:25;;;;;;;3.67;0.90;;;;;;;;;;5023113;28;20433;-73
2022/06/13 11:39:51;;;;;;;2.42;0.90;;;;;;;;;;5023942;28;20461;-73
2022/06/13 11:42:26;;;;;;;2.65;0.77;;;;;;;;;;5024315;28;20182;-73
2022/06/13 11:44:53;;;;;;;3.13;1.10;;;;;;;;;;5025166;28;20184;-73
2022/06/13 11:47:19;;;;;;;3.33;1.00;;;;;;;;;;5023585;28;20175;-73
2022/06/13 11:49:49;;;;;;;2.80;1.05;;;;;;;;;;5017864;28;20183;-73
2022/06/13 11:53:35;;;;;;;2.08;0.80;;;;;;;;;;5019223;28;20291;-73
2022/06/13 11:54:59;;;;;;;3.20;0.80;;;;;;;;;;5023115;28;20205;-74
2022/06/13 11:57:25;;;;;;;3.72;0.68;;;;;;;;;;5023839;28;20336;-74
2022/06/13 11:59:56;;;;;;;4.43;1.07;;;;;;;;;;5019933;28;20371;-73
2022/06/13 12:02:25;;;;;;;3.30;1.00;;;;;;;;;;5021955;28;20436;-74
2022/06/13 12:04:53;;;;;;;3.53;0.57;;;;;;;;;;5018879;28;20552;-73
2022/06/13 12:07:21;;;;;;;2.38;0.90;;;;;;;;;;5021727;28;20237;-73
2022/06/13 12:09:51;;;;;;;3.22;1.02;;;;;;;;;;5020839;28;20209;-73
2022/06/13 12:12:16;;;;;;;5.60;1.00;;;;;;;;;;5023741;28;20217;-73
2022/06/13 12:14:42;;;;;;;3.00;0.75;;;;;;;;;;5024643;28;20257;-73
2022/06/13 12:17:17;;;;;;;5.22;1.00;;;;;;;;;;5021595;28;20311;-74
2022/06/13 12:20:01;;;;;;;3.22;1.00;;;;;;;;;;5020830;28;20180;-73
2022/06/13 12:22:42;;;;;;;1.42;0.60;;;;;;;;;;5023720;28;20276;-73
2022/06/13 12:25:13;;;;;;;5.30;0.85;;;;;;;;;;5024697;28;20210;-73
2022/06/13 12:27:38;;;;;;;3.67;1.10;;;;;;;;;;5020937;28;20178;-73
2022/06/13 12:30:06;;;;;;;3.47;1.10;;;;;;;;;;5020640;28;20575;-73
2022/06/13 12:32:36;;;;;;;3.35;1.35;;;;;;;;;;5025408;28;20419;-73
2022/06/13 12:35:17;;;;;;;4.60;1.65;;;;;;;;;;5021126;28;20742;-73
2022/06/13 12:37:42;;;;;;;5.65;2.17;;;;;;;;;;5022573;28;20588;-73
2022/06/13 12:40:10;;;;;;;3.35;1.83;;;;;;;;;;5027379;28;20193;-73
2022/06/13 12:42:41;;;;;;;4.60;1.65;;;;;;;;;;5019545;28;20184;-73
2022/06/13 12:45:18;;;;;;;5.22;2.10;;;;;;;;;;5022852;28;20194;-73
2022/06/13 12:47:44;;;;;;;4.50;1.80;;;;;;;;;;5022049;28;20190;-73
2022/06/13 12:50:21;;;;;;;3.22;1.20;;;;;;;;;;5031901;28;20175;-73
2022/06/13 12:52:57;;;;;;;4.13;1.30;;;;;;;;;;5023632;28;20185;-73
2022/06/13 12:55:41;;;;;;;1.50;0.63;;;;;;;;;;5024121;28;20201;-74
2022/06/13 12:58:09;;;;;;;4.95;1.10;;;;;;;;;;5021523;28;20198;-73
2022/06/13 13:00:35;;;;;;;4.13;1.15;;;;;;;;;;5021377;28;20182;-74
2022/06/13 13:03:13;;;;;;;3.25;0.90;;;;;;;;;;5023212;28;20202;-73
2022/06/13 13:05:44;;;;;;;2.97;1.17;;;;;;;;;;5025480;28;20940;-74
2022/06/13 13:08:09;;;;;;;4.05;1.00;;;;;;;;;;5024530;28;20181;-74
2022/06/13 13:10:37;;;;;;;3.90;1.33;;;;;;;;;;5025123;28;20213;-74
2022/06/13 13:13:08;;;;;;;3.97;0.70;;;;;;;;;;5026054;28;20430;-74
2022/06/13 13:15:41;;;;;;;4.50;1.27;;;;;;;;;;5029939;28;20289;-74
2022/06/13 13:18:26;;;;;;;2.30;0.88;;;;;;;;;;5026039;28;20814;-74
2022/06/13 13:20:56;;;;;;;4.22;1.15;;;;;;;;;;5021548;28;20189;-73
2022/06/13 13:23:24;;;;;;;4.03;1.40;;;;;;;;;;5021187;28;20244;-73
2022/06/13 13:25:56;;;;;;;5.32;1.60;;;;;;;;;;5021759;28;20260;-73
2022/06/13 13:28:31;;;;;;;3.95;1.00;;;;;;;;;;5021913;28;20277;-73
2022/06/13 13:31:01;;;;;;;5.45;1.20;;;;;;;;;;5036932;28;20219;-74
2022/06/13 13:33:29;;;;;;;3.20;1.27;;;;;;;;;;5023706;28;21727;-74
2022/06/13 13:35:56;;;;;;;7.38;1.98;;;;;;;;;;5024589;28;20198;-74
2022/06/13 13:38:24;;;;;;;6.10;1.48;;;;;;;;;;5024323;28;20209;-74
2022/06/13 13:41:01;;;;;;;3.33;1.08;;;;;;;;;;5025564;28;20724;-74
2022/06/13 13:43:45;;;;;;;4.30;1.30;;;;;;;;;;5024551;28;20201;-73
2022/06/13 13:46:21;;;;;;;4.38;1.02;;;;;;;;;;5024801;28;20896;-73
2022/06/13 13:48:54;;;;;;;4.00;1.40;;;;;;;;;;5021467;28;20178;-74
2022/06/13 13:51:25;;;;;;;7.68;1.67;;;;;;;;;;5022276;28;20197;-73
2022/06/13 13:54:10;;;;;;;3.92;0.95;;;;;;;;;;5021119;28;20656;-74
2022/06/13 13:57:05;;;;;;;4.75;1.10;;;;;;;;;;5026136;28;20226;-74
2022/06/13 13:59:32;;;;;;;3.10;1.13;;;;;;;;;;5016304;28;20194;-73
2022/06/13 14:02:08;;;;;;;5.80;1.50;;;;;;;;;;5023919;28;20213;-73
2022/06/13 14:04:44;;;;;;;2.33;0.70;;;;;;;;;;5028628;28;20189;-72
2022/06/13 14:07:15;;;;;;;4.32;1.02;;;;;;;;;;5025324;28;20209;-73
2022/06/13 14:09:40;;;;;;;4.25;1.20;;;;;;;;;;5021737;28;20734;-73
2022/06/13 14:12:09;;;;;;;3.42;1.13;;;;;;;;;;5025328;28;20744;-72
2022/06/13 14:14:38;;;;;;;3.40;1.20;;;;;;;;;;5024450;28;20174;-73
2022/06/13 14:17:04;;;;;;;6.80;1.20;;;;;;;;;;5033420;28;20201;-73
2022/06/13 14:19:31;;;;;;;3.65;0.85;;;;;;;;;;5027416;28;20213;-73
2022/06/13 14:21:59;;;;;;;4.75;1.35;;;;;;;;;;5024689;28;20323;-73
2022/06/13 14:24:26;;;;;;;4.72;1.05;;;;;;;;;;5020264;28;20636;-73
2022/06/13 14:26:53;;;;;;;5.93;1.00;;;;;;;;;;5022638;28;20209;-73
2022/06/13 14:29:24;;;;;;;2.35;1.10;;;;;;;;;;5025868;28;20173;-73
2022/06/13 14:31:54;;;;;;;2.75;0.88;;;;;;;;;;5023374;28;20209;-73
2022/06/13 14:37:24;;;;;;;5.00;1.65;;;;;;;;;;5020052;28;20197;-73
2022/06/13 14:39:54;;;;;;;4.43;1.63;;;;;;;;;;5019733;28;20190;-73
2022/06/13 14:42:22;;;;;;;3.50;0.90;;;;;;;;;;5018739;28;21543;-74
2022/06/13 14:44:56;;;;;;;2.72;1.20;;;;;;;;;;5026094;28;20186;-73
2022/06/13 14:47:42;;;;;;;2.90;1.10;;;;;;;;;;5022911;28;20182;-74
2022/06/13 14:50:07;;;;;;;3.72;1.15;;;;;;;;;;5022093;28;20194;-73
2022/06/13 14:52:32;;;;;;;3.28;1.35;;;;;;;;;;5023194;28;20594;-73
2022/06/13 14:55:04;;;;;;;3.47;1.52;;;;;;;;;;5021689;28;20186;-73
2022/06/13 14:57:29;;;;;;;3.80;1.27;;;;;;;;;;5020310;28;20182;-73
2022/06/13 15:00:03;;;;;;;3.90;1.17;;;;;;;;;;5019721;28;20232;-73
2022/06/13 15:02:29;;;;;;;4.45;2.20;;;;;;;;;;5020548;28;20185;-74
2022/06/13 15:05:05;;;;;;;3.95;1.60;;;;;;;;;;5021715;28;20239;-74
2022/06/13 15:07:40;;;;;;;2.85;1.00;;;;;;;;;;5017597;28;20262;-73
2022/06/13 15:10:10;;;;;;;3.95;1.30;;;;;;;;;;5021838;28;20198;-73
2022/06/13 15:12:38;;;;;;;4.30;1.08;;;;;;;;;;5024087;28;20214;-73
2022/06/13 15:15:06;;;;;;;7.15;1.30;;;;;;;;;;5023208;28;20194;-74
2022/06/13 15:17:33;;;;;;;6.20;1.40;;;;;;;;;;5019941;28;20174;-74